Oppelo, Arkansas
Current Conditions -  °F | °C
As of 9:53 AM on Wednesday 26 Nov 2014 (Local Time) from KRUE Reporting Station
Clear Clear  
Wind Chill: 38°   Ceiling: Unl
Heat Index: 38°   Visibility: 10mi
Dew Point: 32°   Wind: 3mph
Humidity: 79%   Direction: 190°S
Pressure: 30.02"   Gusts: NA
Location:  35.227°N, 92.6879°W
Report Text: KRUE 261553Z AUTO 19003KT 10SM CLR 03/00 A3002 RMK AO2 SLP163 T00330000
Loading
Personal Weather Stations






























Interactive Weather Map New forecast layout! Learn more

10-Day Weather Forecast

Advertisements
Track Severe Weather on mobile